NEODyS-2

Near Earth Objects - Dynamic Site
NEODyS ∴ Observatories ∴ Site 691 ∴ Obs & residuals
Contact »
691  ▹ 
OBSERVATIONS AND RESIDUALS

691-Steward Observatory, Kitt Peak-Spacewatch

Detections | Residuals | Detections & Residuals

[1-200] [201-400] [401-600] [601-800] [801-1000] [1001-1200] [1201-1400] [1401-1600] [1601-1800] [1801-2000] [2001-2200] [2201-2400] [2401-2600] [2601-2800] [2801-3000] [3001-3200] [3201-3400] [3401-3600] [3601-3800] [3801-4000] [4001-4200] [4201-4400] [4401-4600] [4601-4800] [4801-5000] [5001-5200] [5201-5400] [5401-5600] [5601-5800] [5801-6000] [6001-6200] [6201-6400] [6401-6600] [6601-6800] [6801-7000] [7001-7200] [7201-7400] [7401-7600] [7601-7800] [7801-8000] [8001-8200] [8201-8400] [8401-8600] [8601-8800] [8801-9000] [9001-9200] [9201-9400] [9401-9600] [9601-9800] [9801-10000] [10001-10200] [10201-10400] [10401-10600] [10601-10800] [10801-11000] [11001-11200] [11201-11400] [11401-11600] [11601-11800] [11801-12000] [12001-12200] [12201-12400] [12401-12600] [12601-12800] [12801-13000] [13001-13200] [13201-13400] [13401-13600] [13601-13800] [13801-14000] [14001-14200] [14201-14400] [14401-14600] [14601-14800] [14801-15000] [15001-15200] [15201-15400] [15401-15600] [15601-15800] [15801-16000] [16001-16200] [16201-16400] [16401-16600] [16601-16800] [16801-17000] [17001-17200] [17201-17400] [17401-17600] [17601-17800] [17801-18000] [18001-18200] [18201-18400] [18401-18600] [18601-18800] [18801-19000] [19001-19200] [19201-19400] [19401-19600] [19601-19800] [19801-20000] [20001-20200] [20201-20400] [20401-20600] [20601-20800] [20801-21000] [21001-21200] [21201-21400] [21401-21600] [21601-21800] [21801-22000] [22001-22200] [22201-22400] [22401-22600] [22601-22800] [22801-23000] [23001-23200] [23201-23400] [23401-23600] [23601-23800] [23801-24000] [24001-24200] [24201-24400] [24401-24600] [24601-24800] [24801-25000] [25001-25200] [25201-25400] [25401-25600] [25601-25800] [25801-26000] [26001-26200] [26201-26400] [26401-26600] [26601-26800] [26801-27000] [27001-27200] [27201-27400] [27401-27600] [27601-27800] [27801-28000] [28001-28200] [28201-28400] [28401-28600] [28601-28800] [28801-29000] [29001-29200] [29201-29400] [29401-29600] [29601-29800] [29801-30000] [30001-30200] [30201-30400] [30401-30600] [30601-30800] [30801-31000] [31001-31200] [31201-31400] [31401-31600] [31601-31800] [31801-32000] [32001-32200] [32201-32400] [32401-32600] [32601-32800] [32801-33000] [33001-33200] [33201-33400] [33401-33600] [33601-33800] [33801-34000] [34001-34200] [34201-34400] [34401-34600] [34601-34800] [34801-35000] [35001-35200] [35201-35400] [35401-35600] [35601-35800] [35801-36000] [36001-36200] [36201-36400] [36401-36600] [36601-36800] [36801-37000] [37001-37200] [37201-37400] [37401-37600] [37601-37800] [37801-38000] [38001-38200] [38201-38400] [38401-38600] [38601-38800] [38801-39000] [39001-39200] [39201-39400] [39401-39600] [39601-39800] [39801-40000] [40001-40200] [40201-40400] [40401-40600] [40601-40800] [40801-41000] [41001-41200] [41201-41400] [41401-41600] [41601-41800] [41801-42000] [42001-42200] [42201-42400] [42401-42600] [42601-42800] [42801-43000] [43001-43200] [43201-43400] [43401-43600] [43601-43800] [43801-44000] [44001-44200] [44201-44400] [44401-44600] [44601-44800] [44801-45000] [45001-45200] [45201-45400] [45401-45600] [45601-45800] [45801-46000] [46001-46200] [46201-46400] [46401-46600] [46601-46800] [46801-47000] [47001-47200] [47201-47400] [47401-47600] [47601-47800] [47801-48000] [48001-48200] [48201-48400] [48401-48600] [48601-48800] [48801-49000] [49001-49200] [49201-49400] [49401-49600] [49601-49800] [49801-50000] [50001-50200] [50201-50388]

Designation T Tech N Date Right Ascension Declination Apparent Magnitude Star Catalog Site code χ Used A Used M
yr-mo-day precision hr:min:sec precision rms F bias residual deg min sec precision rms F bias residual mag/col rms residual
2021BG2 O C K 2021-01-18.26195 1.000E-05 09:03:16.790 1.500E-01 0.500 F 0.069 0.129 -14° 15' 18.10" 1.000E-01 0.500 F -0.145 -0.198 20.9 R 0.70 -0.16 o 691 0.49 Yes Yes
2021BZ O C K 2021-01-18.26639 1.000E-05 09:10:59.370 1.500E-01 0.500 F 0.121 -0.768 -17° 44' 27.50" 1.000E-01 0.500 F -0.108 0.556 20.7 R 0.70 0.10 o 691 1.93 Yes Yes
2021AS3 O C K 2021-01-18.27310 1.000E-05 07:39:20.060 1.500E-01 0.500 F -0.025 0.208 +13° 45' 37.30" 1.000E-01 0.500 F 0.264 -0.002 20.8 R 0.70 -0.01 o 691 0.42 Yes Yes
2021BG2 O C K 2021-01-18.28006 1.000E-05 09:03:18.700 1.500E-01 0.500 F 0.069 -0.532 -14° 15' 10.10" 1.000E-01 0.500 F -0.145 -0.183 21.6 R 0.70 0.54 o 691 1.13 Yes Yes
2021BZ O C K 2021-01-18.28451 1.000E-05 09:11:00.210 1.500E-01 0.500 F 0.121 -0.716 -17° 43' 30.50" 1.000E-01 0.500 F -0.108 0.685 19.7 R 0.70 -0.90 o 691 2.02 Yes Yes
2021BH1 O C K 2021-01-18.29696 1.000E-05 09:48:07.820 1.500E-01 0.500 F 0.097 0.100 -16° 20' 24.20" 1.000E-01 0.500 F 0.002 0.309 21.1 R 0.70 0.18 o 691 0.68 Yes Yes
2021BH1 O C K 2021-01-18.30946 1.000E-05 09:48:10.910 1.500E-01 0.500 F 0.097 0.259 -16° 18' 38.60" 1.000E-01 0.500 F 0.002 0.001 o 691 0.54 Yes No
2021BH1 O C K 2021-01-18.32204 1.000E-05 09:48:13.970 1.500E-01 0.500 F 0.097 -0.067 -16° 16' 51.60" 1.000E-01 0.500 F 0.002 0.255 o 691 0.56 Yes No
2021AT1 O C K 2021-01-18.33160 1.000E-05 09:12:17.490 1.500E-01 0.500 F 0.168 0.328 -14° 32' 08.40" 1.000E-01 0.500 F -0.082 0.198 20.3 R 0.70 -0.10 o 691 0.78 Yes Yes
2021AB4 O C K 2021-01-18.33594 1.000E-05 09:25:34.860 1.500E-01 0.500 F 0.153 -0.285 -00° 23' 46.60" 1.000E-01 0.500 F 0.234 0.277 21.1 R 0.70 0.26 o 691 0.84 Yes Yes
2021AT1 O C K 2021-01-18.34109 1.000E-05 09:12:17.980 1.500E-01 0.500 F 0.168 0.169 -14° 33' 23.40" 1.000E-01 0.500 F -0.082 -0.172 20.2 R 0.70 -0.20 o 691 0.49 Yes Yes
2021AB4 O C K 2021-01-18.34544 1.000E-05 09:25:32.960 1.500E-01 0.500 F 0.153 0.306 -00° 23' 46.70" 1.000E-01 0.500 F 0.234 -0.105 20.7 R 0.70 -0.15 o 691 0.69 Yes Yes
2021AT1 O C K 2021-01-18.35058 1.000E-05 09:12:18.450 1.500E-01 0.500 F 0.168 -0.180 -14° 34' 37.50" 1.000E-01 0.500 F -0.082 0.130 20.6 R 0.70 0.20 o 691 0.45 Yes Yes
2021AB4 O C K 2021-01-18.35492 1.000E-05 09:25:31.020 1.500E-01 0.500 F 0.153 0.317 -00° 23' 46.20" 1.000E-01 0.500 F 0.234 0.104 20.9 R 0.70 0.05 o 691 0.72 Yes Yes
2021AZ7 O C K 2021-01-18.36308 1.000E-05 10:37:48.240 1.500E-01 0.500 F 0.018 0.624 -10° 27' 13.30" 1.000E-01 0.500 F 0.090 -0.573 22.0 R 0.70 0.42 o 691 1.80 Yes Yes
2021AZ7 O C K 2021-01-18.37726 1.000E-05 10:37:46.220 1.500E-01 0.500 F 0.018 0.741 -10° 26' 22.40" 1.000E-01 0.500 F 0.090 -0.885 21.3 R 0.70 -0.28 o 691 2.45 Yes Yes
2021AZ7 O C K 2021-01-18.39143 1.000E-05 10:37:44.120 1.500E-01 0.500 F 0.018 -0.306 -10° 25' 30.40" 1.000E-01 0.500 F 0.090 -0.088 21.2 R 0.70 -0.38 o 691 0.66 Yes Yes
2021BW1 O C K 2021-01-18.46402 1.000E-05 09:53:53.730 1.500E-01 0.500 F 0.117 -1.148 +19° 07' 11.90" 1.000E-01 0.500 F 0.376 -0.382 21.7 R 0.70 0.61 o 691 2.44 Yes Yes
2021BA1 O C K 2021-01-18.47783 1.000E-05 08:43:58.280 1.500E-01 0.500 F 0.050 0.552 +22° 30' 10.60" 1.000E-01 0.500 F 0.280 -0.200 21.4 R 0.70 0.47 o 691 1.18 Yes Yes
2021BW1 O C K 2021-01-18.48227 1.000E-05 09:53:43.720 1.500E-01 0.500 F 0.117 0.213 +19° 08' 14.80" 1.000E-01 0.500 F 0.376 -0.379 o 691 0.88 Yes No
2021BA1 O C K 2021-01-18.49608 1.000E-05 08:43:58.670 1.500E-01 0.500 F 0.050 0.552 +22° 30' 15.60" 1.000E-01 0.500 F 0.280 0.253 21.7 R 0.70 0.77 o 691 1.22 Yes Yes
2021BW1 O C K 2021-01-18.50052 1.000E-05 09:53:33.670 1.500E-01 0.500 F 0.117 0.189 +19° 09' 17.10" 1.000E-01 0.500 F 0.376 -0.479 21.3 R 0.70 0.22 o 691 1.04 Yes Yes
2020WA5 O C K 2021-01-18.52009 1.000E-05 12:37:06.740 1.500E-01 0.500 F 0.252 0.165 +00° 18' 28.90" 1.000E-01 0.500 F 0.337 -0.276 o 691 0.65 Yes No
2015AY245 O C K 2021-01-18.52294 1.000E-05 13:50:48.250 1.500E-01 0.500 F 0.216 0.130 -18° 12' 28.60" 1.000E-01 0.500 F -0.040 0.335 21.4 R 0.70 0.50 o 691 0.72 Yes Yes
2020WA5 O C K 2021-01-18.53148 1.000E-05 12:37:07.840 1.500E-01 0.500 F 0.252 -0.071 +00° 17' 24.00" 1.000E-01 0.500 F 0.337 0.541 19.0 R 0.70 0.23 o 691 1.10 Yes Yes
2015AY245 O C K 2021-01-18.53447 1.000E-05 13:50:51.860 1.500E-01 0.500 F 0.216 -0.680 -18° 12' 15.50" 1.000E-01 0.500 F -0.040 -0.412 21.4 R 0.70 0.50 o 691 1.61 Yes Yes
2015AY245 O C K 2021-01-18.54596 1.000E-05 13:50:55.590 1.500E-01 0.500 F 0.216 0.421 -18° 12' 01.10" 1.000E-01 0.500 F -0.040 0.142 20.9 R 0.70 0.00 o 691 0.90 Yes Yes
2021AL6 O C K 2021-01-19.08042 1.000E-05 04:14:20.230 1.500E-01 0.500 F -0.302 0.195 -02° 21' 54.80" 1.000E-01 0.500 F 0.140 -0.316 o 691 0.73 Yes No
2021AL6 O C K 2021-01-19.08749 1.000E-05 04:14:21.670 1.500E-01 0.500 F -0.302 0.070 -02° 21' 51.00" 1.000E-01 0.500 F 0.140 0.118 21.3 R 0.70 0.43 o 691 0.27 Yes Yes
2021AL6 O C K 2021-01-19.09455 1.000E-05 04:14:23.100 1.500E-01 0.500 F -0.302 -0.157 -02° 21' 48.00" 1.000E-01 0.500 F 0.140 -0.245 o 691 0.59 Yes No
2020MA3 O C K 2021-02-05.09538 1.000E-05 01:20:17.340 1.500E-01 0.500 F -0.234 0.653 +13° 51' 02.10" 1.000E-01 0.500 F 0.343 -1.007 o 691 2.45 Yes No
2020MA3 O C K 2021-02-05.10373 1.000E-05 01:20:19.870 1.500E-01 0.500 F -0.234 -0.563 +13° 51' 30.30" 1.000E-01 0.500 F 0.343 0.766 21.3 R 0.70 0.74 o 691 1.94 Yes Yes
2020MA3 O C K 2021-02-05.11206 1.000E-05 01:20:22.550 1.500E-01 0.500 F -0.234 0.482 +13° 51' 56.10" 1.000E-01 0.500 F 0.343 0.212 21.0 R 0.70 0.44 o 691 1.13 Yes Yes
2020WD1 O C K 2021-02-05.16285 1.000E-05 04:36:52.260 1.500E-01 0.500 F -0.174 0.118 +15° 26' 22.40" 1.000E-01 0.500 F 0.236 -0.596 o 691 1.23 Yes No
2020WD1 O C K 2021-02-05.17620 1.000E-05 04:36:54.550 1.500E-01 0.500 F -0.174 0.052 +15° 26' 47.80" 1.000E-01 0.500 F 0.236 0.021 o 691 0.12 Yes No
2020WD1 O C K 2021-02-05.18955 1.000E-05 04:36:56.930 1.500E-01 0.500 F -0.174 1.174 +15° 27' 11.80" 1.000E-01 0.500 F 0.236 -0.674 21.3 R 0.70 -0.20 o 691 2.73 Yes Yes
2014AC16 O C K 2021-02-05.21166 1.000E-05 05:09:09.330 1.500E-01 0.500 F -0.100 -0.610 +22° 41' 48.00" 1.000E-01 0.500 F 0.164 -0.083 20.3 R 0.70 -0.27 o 691 1.26 Yes Yes
2014AC16 O C K 2021-02-05.22042 1.000E-05 05:09:10.330 1.500E-01 0.500 F -0.100 0.124 +22° 42' 16.10" 1.000E-01 0.500 F 0.164 0.036 20.4 R 0.70 -0.17 o 691 0.27 Yes Yes
2021AY5 O C K 2021-02-05.27626 1.000E-05 07:54:52.890 1.500E-01 0.500 F -0.057 0.074 +22° 45' 16.40" 1.000E-01 0.500 F 0.244 -0.184 o 691 0.40 Yes No
2021AY5 O C K 2021-02-05.28969 1.000E-05 07:54:51.300 1.500E-01 0.500 F -0.057 0.070 +22° 44' 35.90" 1.000E-01 0.500 F 0.244 0.103 21.4 R 0.70 0.48 o 691 0.25 Yes Yes
2021AY5 O C K 2021-02-05.30311 1.000E-05 07:54:49.710 1.500E-01 0.500 F -0.057 -0.058 +22° 43' 54.70" 1.000E-01 0.500 F 0.244 -0.184 21.2 R 0.70 0.28 o 691 0.39 Yes Yes
2018DH1 O C K 2021-02-05.33689 1.000E-05 09:59:10.270 1.500E-01 0.500 F 0.000 -0.452 +11° 45' 24.40" 1.000E-01 0.500 F 0.000 0.195 21.0 R 0.70 0.04 691 0.99 Yes Yes
2018DH1 O C K 2021-02-05.34587 1.000E-05 09:59:09.640 1.500E-01 0.500 F 0.000 0.512 +11° 45' 29.00" 1.000E-01 0.500 F 0.000 0.021 21.2 R 0.70 0.24 691 1.03 Yes Yes
2018DH1 O C K 2021-02-05.35495 1.000E-05 09:59:08.900 1.500E-01 0.500 F 0.000 -0.020 +11° 45' 34.10" 1.000E-01 0.500 F 0.000 0.299 21.3 R 0.70 0.34 691 0.60 Yes Yes
2020XK7 O C 2021-02-05.36521 1.000E-05 11:03:27.830 1.500E-01 0.500 F 0.174 0.039 -19° 53' 19.30" 1.000E-01 0.500 F -0.268 0.073 19.3 V 0.70 0.06 o 691 0.16 Yes Yes
2020XK7 O C 2021-02-05.36986 1.000E-05 11:03:28.380 1.500E-01 0.500 F 0.174 -0.257 -19° 53' 29.20" 1.000E-01 0.500 F -0.268 0.091 19.3 V 0.70 0.06 o 691 0.55 Yes Yes
2020XK7 O C 2021-02-05.37296 1.000E-05 11:03:28.770 1.500E-01 0.500 F 0.174 -0.125 -19° 53' 35.80" 1.000E-01 0.500 F -0.268 0.100 19.3 V 0.70 0.06 o 691 0.32 Yes Yes
Apophis O C K 2021-02-05.40491 1.000E-05 11:20:10.030 1.500E-01 0.500 F 0.234 0.096 -19° 33' 15.10" 1.000E-01 0.500 F -0.130 0.160 16.0 R 0.70 -0.26 o 691 0.37 Yes Yes
Apophis O C K 2021-02-05.48499 1.000E-05 11:19:56.950 1.500E-01 0.500 F 0.234 0.055 -19° 33' 06.10" 1.000E-01 0.500 F -0.130 0.141 16.1 R 0.70 -0.16 o 691 0.30 Yes Yes
Apophis O C K 2021-02-05.54197 1.000E-05 11:19:47.850 1.500E-01 0.500 F 0.234 0.179 -19° 32' 57.10" 1.000E-01 0.500 F -0.130 0.164 16.2 R 0.70 -0.05 o 691 0.49 Yes Yes
2020TH5 O C K 2021-02-06.09521 1.000E-05 01:02:09.130 1.500E-01 0.500 F -0.204 -0.035 -07° 09' 49.50" 1.000E-01 0.500 F 0.248 0.147 21.3 R 0.70 -0.31 o 691 0.31 Yes Yes
2020TH5 O C K 2021-02-06.11078 1.000E-05 01:02:08.960 1.500E-01 0.500 F -0.204 0.050 -07° 09' 48.40" 1.000E-01 0.500 F 0.248 0.286 21.5 R 0.70 -0.11 o 691 0.60 Yes Yes
2020TH5 O C K 2021-02-06.12635 1.000E-05 01:02:08.800 1.500E-01 0.500 F -0.204 0.090 -07° 09' 48.10" 1.000E-01 0.500 F 0.248 -0.394 21.6 R 0.70 -0.01 o 691 0.82 Yes Yes
2021BM O C K 2021-02-06.14537 1.000E-05 03:54:15.720 1.500E-01 0.500 F -0.314 0.246 -21° 21' 11.30" 1.000E-01 0.500 F -0.023 0.365 20.8 R 0.70 1.02 o 691 0.90 Yes Yes
2021BM O C K 2021-02-06.15443 1.000E-05 03:54:10.610 1.500E-01 0.500 F -0.314 0.475 -21° 22' 16.60" 1.000E-01 0.500 F -0.023 0.031 20.1 R 0.70 0.32 o 691 0.97 Yes Yes
2021BM O C K 2021-02-06.16351 1.000E-05 03:54:05.490 1.500E-01 0.500 F -0.314 0.417 -21° 23' 21.40" 1.000E-01 0.500 F -0.023 0.033 20.8 R 0.70 1.02 o 691 0.86 Yes Yes
2009CD O C K 2021-02-06.17584 1.000E-05 06:32:28.420 1.500E-01 0.500 F -0.090 -0.685 -14° 17' 53.30" 1.000E-01 0.500 F -0.229 -0.372 20.9 R 0.70 1.05 o 691 1.65 Yes Yes
2009CD O C K 2021-02-06.17887 1.000E-05 06:32:26.610 1.500E-01 0.500 F -0.090 -0.128 -14° 18' 14.30" 1.000E-01 0.500 F -0.229 -0.144 20.6 R 0.70 0.75 o 691 0.41 Yes Yes
2009CD O C K 2021-02-06.18189 1.000E-05 06:32:24.770 1.500E-01 0.500 F -0.090 -0.097 -14° 18' 35.40" 1.000E-01 0.500 F -0.229 -0.097 20.4 R 0.70 0.55 o 691 0.29 Yes Yes
2001CQ36 O C K 2021-02-06.18961 1.000E-05 02:29:27.780 1.500E-01 0.500 F -0.099 -0.041 +27° 02' 21.20" 1.000E-01 0.500 F 0.145 0.364 21.1 R 0.70 0.84 o 691 0.75 Yes Yes
2021AF5 O C K 2021-02-06.19463 1.000E-05 03:21:51.680 1.500E-01 0.500 F -0.004 -0.050 +41° 18' 10.60" 1.000E-01 0.500 F 0.219 0.147 21.2 R 0.70 -0.14 o 691 0.35 Yes Yes
2001CQ36 O C K 2021-02-06.20480 1.000E-05 02:29:37.060 1.500E-01 0.500 F -0.099 -0.825 +27° 02' 55.60" 1.000E-01 0.500 F 0.145 -0.347 21.1 R 0.70 0.84 o 691 1.83 Yes Yes
2021AF5 O C K 2021-02-06.20968 1.000E-05 03:21:53.470 1.500E-01 0.500 F -0.004 0.013 +41° 18' 41.50" 1.000E-01 0.500 F 0.219 -0.190 21.2 R 0.70 -0.14 o 691 0.43 Yes Yes
2001CQ36 O C K 2021-02-06.21984 1.000E-05 02:29:46.400 1.500E-01 0.500 F -0.099 -0.118 +27° 03' 30.50" 1.000E-01 0.500 F 0.145 -0.022 21.1 R 0.70 0.85 o 691 0.24 Yes Yes
2021AF5 O C K 2021-02-06.22471 1.000E-05 03:21:55.340 1.500E-01 0.500 F -0.004 0.288 +41° 19' 12.30" 1.000E-01 0.500 F 0.219 -0.165 o 691 0.76 Yes No
2020YD4 O C K 2021-02-06.26913 1.000E-05 06:53:32.310 1.500E-01 0.500 F -0.028 -0.165 +33° 32' 44.60" 1.000E-01 0.500 F 0.273 0.474 22.3 R 0.70 0.61 o 691 1.12 Yes Yes
2020YD4 O C K 2021-02-06.28102 1.000E-05 06:53:34.050 1.500E-01 0.500 F -0.028 -0.766 +33° 33' 08.40" 1.000E-01 0.500 F 0.273 -0.577 o 691 2.12 Yes No
2020YD4 O C K 2021-02-06.29289 1.000E-05 06:53:35.890 1.500E-01 0.500 F -0.028 -0.173 +33° 33' 33.60" 1.000E-01 0.500 F 0.273 -0.048 o 691 0.40 Yes No
2020QZ3 O C K 2021-02-07.13640 1.000E-05 03:08:54.110 1.500E-01 0.500 F -0.317 0.113 -14° 09' 09.70" 1.000E-01 0.500 F 0.134 -0.144 20.8 R 0.70 0.17 o 691 0.37 Yes Yes
2020QZ3 O C K 2021-02-07.14278 1.000E-05 03:08:57.230 1.500E-01 0.500 F -0.317 -0.966 -14° 08' 57.60" 1.000E-01 0.500 F 0.134 0.820 20.8 R 0.70 0.17 o 691 2.58 Yes Yes
2020QZ3 O C K 2021-02-07.14917 1.000E-05 03:09:00.490 1.500E-01 0.500 F -0.317 -0.107 -14° 08' 46.80" 1.000E-01 0.500 F 0.134 0.454 20.7 R 0.70 0.07 o 691 0.95 Yes Yes
2018NC O C K 2021-02-07.17265 1.000E-05 04:22:34.000 1.500E-01 0.500 F -0.198 0.041 +17° 11' 24.20" 1.000E-01 0.500 F 0.382 -0.204 22.5 R 0.70 0.75 o 691 0.42 Yes Yes
2018NC O C K 2021-02-07.18558 1.000E-05 04:22:33.540 1.500E-01 0.500 F -0.198 -0.031 +17° 11' 30.80" 1.000E-01 0.500 F 0.382 0.027 22.3 R 0.70 0.55 o 691 0.08 Yes Yes
2018NC O C K 2021-02-07.19844 1.000E-05 04:22:33.110 1.500E-01 0.500 F -0.198 0.252 +17° 11' 36.80" 1.000E-01 0.500 F 0.382 -0.291 22.4 R 0.70 0.65 o 691 0.77 Yes Yes
2020PD1 O C K 2021-02-07.21318 1.000E-05 04:40:23.160 1.500E-01 0.500 F -0.180 -0.102 -03° 50' 08.30" 1.000E-01 0.500 F -0.056 0.161 21.6 R 0.70 -0.08 o 691 0.38 Yes Yes
2020PD1 O C K 2021-02-07.22714 1.000E-05 04:40:24.580 1.500E-01 0.500 F -0.180 0.263 -03° 49' 54.40" 1.000E-01 0.500 F -0.056 0.582 20.9 R 0.70 -0.78 o 691 1.29 Yes Yes
2020PD1 O C K 2021-02-07.24109 1.000E-05 04:40:25.960 1.500E-01 0.500 F -0.180 0.011 -03° 49' 41.30" 1.000E-01 0.500 F -0.056 0.211 21.3 R 0.70 -0.38 o 691 0.43 Yes Yes
2016NV38 O C K 2021-02-07.26013 1.000E-05 06:00:14.040 1.500E-01 0.500 F -0.153 -0.462 -14° 36' 07.80" 1.000E-01 0.500 F -0.122 -0.164 20.3 R 0.70 -0.55 o 691 0.99 Yes Yes
2016NV38 O C K 2021-02-07.26587 1.000E-05 06:00:14.320 1.500E-01 0.500 F -0.153 0.331 -14° 35' 57.70" 1.000E-01 0.500 F -0.122 0.125 20.7 R 0.70 -0.15 o 691 0.71 Yes Yes
2016NV38 O C K 2021-02-07.27160 1.000E-05 06:00:14.530 1.500E-01 0.500 F -0.153 0.107 -14° 35' 47.60" 1.000E-01 0.500 F -0.122 0.429 20.7 R 0.70 -0.15 o 691 0.89 Yes Yes
2021AY5 O C K 2021-02-07.27940 1.000E-05 07:52:15.110 1.500E-01 0.500 F -0.005 -0.153 +21° 09' 38.50" 1.000E-01 0.500 F 0.333 -0.306 o 691 0.69 Yes No
2021AY5 O C K 2021-02-07.28662 1.000E-05 07:52:14.430 1.500E-01 0.500 F -0.005 0.257 +21° 09' 19.50" 1.000E-01 0.500 F 0.333 0.480 o 691 1.10 Yes No
2021AY5 O C K 2021-02-07.29384 1.000E-05 07:52:13.690 1.500E-01 0.500 F -0.005 -0.205 +21° 08' 58.60" 1.000E-01 0.500 F 0.333 -0.595 o 691 1.27 Yes No
2021AZ O C K 2021-02-07.30501 1.000E-05 09:17:51.930 1.500E-01 0.500 F 0.124 -0.478 -04° 33' 53.20" 1.000E-01 0.500 F 0.043 0.464 22.9 R 0.70 1.44 o 691 1.37 Yes Yes
2021AZ O C K 2021-02-07.31142 1.000E-05 09:17:51.740 1.500E-01 0.500 F 0.124 0.113 -04° 33' 50.20" 1.000E-01 0.500 F 0.043 -0.177 22.0 R 0.70 0.54 o 691 0.43 Yes Yes
2021AZ O C K 2021-02-07.31783 1.000E-05 09:17:51.500 1.500E-01 0.500 F 0.124 -0.044 -04° 33' 46.10" 1.000E-01 0.500 F 0.043 0.277 22.0 R 0.70 0.54 o 691 0.58 Yes Yes
2001CQ36 O C K 2021-02-08.10271 1.000E-05 02:49:32.300 1.500E-01 0.500 F -0.158 0.889 +28° 15' 03.80" 1.000E-01 0.500 F 0.194 -0.551 20.6 R 0.70 0.40 o 691 2.10 Yes Yes
2001CQ36 O C K 2021-02-08.10715 1.000E-05 02:49:34.830 1.500E-01 0.500 F -0.158 -0.451 +28° 15' 12.80" 1.000E-01 0.500 F 0.194 -0.365 21.3 R 0.70 1.10 o 691 1.20 Yes Yes
2001CQ36 O C K 2021-02-08.11159 1.000E-05 02:49:37.460 1.500E-01 0.500 F -0.158 -0.488 +28° 15' 21.80" 1.000E-01 0.500 F 0.194 -0.152 20.9 R 0.70 0.70 o 691 1.05 Yes Yes
2020AD3 O C K 2021-02-08.27989 1.000E-05 08:08:34.490 1.500E-01 0.500 F -0.132 -0.007 +13° 05' 18.80" 1.000E-01 0.500 F 0.213 -0.070 20.8 R 0.70 0.28 o 691 0.14 Yes Yes
2020AD3 O C K 2021-02-08.28364 1.000E-05 08:08:33.750 1.500E-01 0.500 F -0.132 0.332 +13° 05' 22.30" 1.000E-01 0.500 F 0.213 -0.003 20.6 R 0.70 0.08 o 691 0.67 Yes Yes
2020AD3 O C K 2021-02-08.28739 1.000E-05 08:08:33.010 1.500E-01 0.500 F -0.132 0.668 +13° 05' 25.50" 1.000E-01 0.500 F 0.213 -0.234 20.9 R 0.70 0.38 o 691 1.44 Yes Yes
Apophis O C 2021-02-08.29413 1.000E-05 11:12:46.060 1.500E-01 0.500 F 0.153 -0.026 -19° 23' 57.90" 1.000E-01 0.500 F -0.243 0.059 16.9 V 0.70 0.42 o 691 0.13 Yes Yes
Apophis O C 2021-02-08.31911 1.000E-05 11:12:41.400 1.500E-01 0.500 F 0.153 0.028 -19° 23' 51.70" 1.000E-01 0.500 F -0.243 0.004 16.8 V 0.70 0.32 o 691 0.06 Yes Yes
Apophis O C 2021-02-08.34244 1.000E-05 11:12:37.010 1.500E-01 0.500 F 0.153 0.136 -19° 23' 45.40" 1.000E-01 0.500 F -0.243 0.072 16.7 V 0.70 0.22 o 691 0.31 Yes Yes
2020QZ3 O C K 2021-02-09.10053 1.000E-05 03:25:50.190 1.500E-01 0.500 F -0.284 -0.013 -13° 09' 36.20" 1.000E-01 0.500 F 0.209 0.155 21.3 R 0.70 0.76 o 691 0.32 Yes Yes
2020QZ3 O C K 2021-02-09.10498 1.000E-05 03:25:52.510 1.500E-01 0.500 F -0.284 0.682 -13° 09' 27.40" 1.000E-01 0.500 F 0.209 0.404 o 691 1.61 Yes No
2020QZ3 O C K 2021-02-09.10942 1.000E-05 03:25:54.750 1.500E-01 0.500 F -0.284 0.276 -13° 09' 18.90" 1.000E-01 0.500 F 0.209 0.366 o 691 0.93 Yes No
2015FT118 O C K 2021-02-09.11627 1.000E-05 04:36:23.760 1.500E-01 0.500 F -0.173 0.504 -22° 05' 25.00" 1.000E-01 0.500 F 0.128 0.112 o 691 1.04 Yes No
2015FT118 O C K 2021-02-09.13211 1.000E-05 04:36:25.650 1.500E-01 0.500 F -0.173 0.111 -22° 04' 55.30" 1.000E-01 0.500 F 0.128 0.132 o 691 0.35 Yes No
2021CF2 O C K 2021-02-09.15626 1.000E-05 08:17:44.390 1.500E-01 0.500 F 0.143 -0.486 +10° 18' 20.60" 1.000E-01 0.500 F 0.077 0.017 20.8 R 0.70 -0.07 o 691 0.98 Yes Yes
2021CF2 O C K 2021-02-09.16486 1.000E-05 08:17:45.660 1.500E-01 0.500 F 0.143 -0.138 +10° 18' 18.30" 1.000E-01 0.500 F 0.077 0.161 21.2 R 0.70 0.33 o 691 0.43 Yes Yes
2021CF2 O C K 2021-02-09.17347 1.000E-05 08:17:46.910 1.500E-01 0.500 F 0.143 -0.035 +10° 18' 15.60" 1.000E-01 0.500 F 0.077 -0.073 21.4 R 0.70 0.53 o 691 0.16 Yes Yes
2021CW1 O C K 2021-02-09.18208 1.000E-05 08:44:55.500 1.500E-01 0.500 F 0.129 -0.371 +14° 46' 31.80" 1.000E-01 0.500 F 0.134 -0.146 21.1 R 0.70 -0.47 o 691 0.88 Yes Yes
2021CW1 O C K 2021-02-09.19499 1.000E-05 08:44:54.920 1.500E-01 0.500 F 0.129 -0.099 +14° 46' 54.60" 1.000E-01 0.500 F 0.134 -0.178 21.3 R 0.70 -0.27 o 691 0.45 Yes Yes
2021CW1 O C K 2021-02-09.20789 1.000E-05 08:44:54.320 1.500E-01 0.500 F 0.129 0.041 +14° 47' 17.50" 1.000E-01 0.500 F 0.134 0.002 21.5 R 0.70 -0.07 o 691 0.09 Yes Yes
2021CD3 O C H 2021-02-09.22558 1.000E-05 09:00:30.260 1.500E-01 0.612 F -0.019 0.098 +12° 50' 26.00" 1.000E-01 0.612 F 0.231 -0.444 20.5 R 0.70 -0.17 o 691 0.74 Yes Yes
2000PE3 O C 2021-02-09.22558 1.000E-05 09:02:18.360 1.500E-01 0.500 F -0.019 -0.360 +13° 08' 32.90" 1.000E-01 0.500 F 0.243 -0.023 19.7 V 0.70 0.31 o 691 0.73 Yes Yes
2021CD3 O C 2021-02-09.22791 1.000E-05 09:00:30.020 1.500E-01 0.612 F -0.019 -0.534 +12° 50' 28.00" 1.000E-01 0.612 F 0.231 -0.198 20.8 V 0.70 -0.27 o 691 0.93 Yes Yes
2021CC3 O C K 2021-02-09.23015 1.000E-05 09:03:35.970 1.500E-01 0.500 F 0.179 -0.307 +09° 15' 38.60" 1.000E-01 0.500 F 0.095 0.106 22.1 R 0.70 0.32 o 691 0.66 Yes Yes
2000PE3 O C 2021-02-09.23885 1.000E-05 09:02:15.520 1.500E-01 0.500 F -0.019 -0.180 +13° 08' 08.80" 1.000E-01 0.500 F 0.243 0.030 19.6 V 0.70 0.21 o 691 0.37 Yes Yes
2021CD3 O C H 2021-02-09.23885 1.000E-05 09:00:29.140 1.500E-01 0.612 F -0.019 0.125 +12° 50' 36.30" 1.000E-01 0.612 F 0.231 -0.128 20.5 R 0.70 -0.17 o 691 0.29 Yes Yes
2021CD3 O C 2021-02-09.24118 1.000E-05 09:00:28.950 1.500E-01 0.612 F -0.019 0.229 +12° 50' 38.30" 1.000E-01 0.612 F 0.231 0.120 20.5 V 0.70 -0.57 o 691 0.42 Yes Yes
2021CC3 O C K 2021-02-09.24342 1.000E-05 09:03:37.130 1.500E-01 0.500 F 0.179 -0.628 +09° 15' 57.30" 1.000E-01 0.500 F 0.095 0.186 22.0 R 0.70 0.22 o 691 1.33 Yes Yes
2000PE3 O C 2021-02-09.25213 1.000E-05 09:02:12.650 1.500E-01 0.500 F -0.019 -0.333 +13° 07' 44.50" 1.000E-01 0.500 F 0.243 -0.053 19.6 V 0.70 0.21 o 691 0.68 Yes Yes
2021CD3 O C H 2021-02-09.25213 1.000E-05 09:00:28.000 1.500E-01 0.612 F -0.019 -0.103 +12° 50' 46.70" 1.000E-01 0.612 F 0.231 0.291 21.0 R 0.70 0.33 o 691 0.51 Yes Yes
2021CD3 O C 2021-02-09.25446 1.000E-05 09:00:27.790 1.500E-01 0.612 F -0.019 -0.287 +12° 50' 48.20" 1.000E-01 0.612 F 0.231 0.041 21.0 V 0.70 -0.07 o 691 0.48 Yes Yes
2021CC3 O C K 2021-02-09.25670 1.000E-05 09:03:38.350 1.500E-01 0.500 F 0.179 0.005 +09° 16' 15.80" 1.000E-01 0.500 F 0.095 0.077 22.3 R 0.70 0.52 o 691 0.16 Yes Yes
Apophis O C 2021-02-09.30555 1.000E-05 11:09:52.370 1.500E-01 0.500 F 0.268 -0.215 -19° 18' 06.60" 1.000E-01 0.500 F -0.277 0.298 16.3 V 0.70 -0.12 o 691 0.73 Yes Yes
Apophis O C 2021-02-09.32880 1.000E-05 11:09:47.790 1.500E-01 0.500 F 0.268 -0.223 -19° 17' 58.80" 1.000E-01 0.500 F -0.277 0.069 16.4 V 0.70 -0.01 o 691 0.47 Yes Yes
Apophis O C 2021-02-09.35051 1.000E-05 11:09:43.480 1.500E-01 0.500 F 0.268 -0.265 -19° 17' 50.90" 1.000E-01 0.500 F -0.277 0.116 16.4 V 0.70 -0.01 o 691 0.58 Yes Yes
2001CQ36 O C K 2021-02-11.11332 1.000E-05 03:20:12.290 1.500E-01 0.500 F -0.168 0.872 +29° 42' 19.60" 1.000E-01 0.500 F 0.450 0.221 21.2 R 0.70 1.05 o 691 1.86 Yes Yes
2001CQ36 O C K 2021-02-11.12864 1.000E-05 03:20:20.890 1.500E-01 0.500 F -0.168 -0.285 +29° 42' 40.50" 1.000E-01 0.500 F 0.450 0.602 20.7 R 0.70 0.55 o 691 1.34 Yes Yes
2001CQ36 O C K 2021-02-11.14397 1.000E-05 03:20:29.670 1.500E-01 0.500 F -0.168 0.594 +29° 42' 59.70" 1.000E-01 0.500 F 0.450 -0.408 20.6 R 0.70 0.45 o 691 1.45 Yes Yes
2018NC O C K 2021-02-11.21628 1.000E-05 04:20:58.280 1.500E-01 0.500 F -0.192 -0.128 +17° 46' 27.20" 1.000E-01 0.500 F 0.306 0.118 o 691 0.35 Yes No
2018NC O C K 2021-02-11.23857 1.000E-05 04:20:57.880 1.500E-01 0.500 F -0.192 0.359 +17° 46' 39.00" 1.000E-01 0.500 F 0.306 0.224 o 691 0.86 Yes No
2015TH145 O C K 2021-02-12.08822 1.000E-05 00:22:08.900 1.500E-01 0.500 F -0.071 0.020 +27° 12' 44.00" 1.000E-01 0.500 F 0.286 -0.567 22.1 R 0.70 0.95 o 691 1.14 Yes Yes
2015TH145 O C K 2021-02-12.10273 1.000E-05 00:22:10.800 1.500E-01 0.500 F -0.071 -1.135 +27° 12' 59.90" 1.000E-01 0.500 F 0.286 0.034 21.8 R 0.70 0.65 o 691 2.27 Yes Yes
2020QZ3 O C K 2021-02-12.12541 1.000E-05 03:52:28.680 1.500E-01 0.500 F -0.328 0.170 -11° 26' 26.80" 1.000E-01 0.500 F 0.154 -0.225 o 691 0.57 Yes No
2020QZ3 O C K 2021-02-12.13224 1.000E-05 03:52:32.250 1.500E-01 0.500 F -0.328 0.290 -11° 26' 11.90" 1.000E-01 0.500 F 0.154 -0.237 o 691 0.76 Yes No
2021CA7 O C K 2021-02-12.18084 1.000E-05 07:58:56.340 1.500E-01 0.500 F 0.088 0.633 +02° 49' 11.50" 1.000E-01 0.500 F 0.073 0.656 22.0 R 0.70 0.07 o 691 1.85 Yes Yes
2021CA7 O C K 2021-02-12.20169 1.000E-05 07:58:53.540 1.500E-01 0.500 F 0.088 -0.069 +02° 49' 00.00" 1.000E-01 0.500 F 0.073 -0.082 21.8 R 0.70 -0.13 o 691 0.22 Yes Yes
2021CB6 O C K 2021-02-12.27012 1.000E-05 09:42:57.040 1.500E-01 0.500 F 0.122 -0.525 -17° 24' 40.70" 1.000E-01 0.500 F -0.014 -0.059 21.3 R 0.70 -0.08 o 691 1.06 Yes Yes
2021CX5 O C K 2021-02-12.27885 1.000E-05 08:54:28.120 1.500E-01 0.500 F 0.143 -0.440 +04° 32' 22.40" 1.000E-01 0.500 F 0.144 0.107 21.4 R 0.70 0.47 o 691 0.91 Yes Yes
2021CB6 O C K 2021-02-12.28280 1.000E-05 09:42:57.550 1.500E-01 0.500 F 0.122 -0.528 -17° 24' 07.90" 1.000E-01 0.500 F -0.014 -0.063 21.4 R 0.70 0.02 o 691 1.07 Yes Yes
2021CX5 O C K 2021-02-12.29153 1.000E-05 08:54:27.470 1.500E-01 0.500 F 0.143 -0.253 +04° 32' 12.60" 1.000E-01 0.500 F 0.144 0.267 20.6 R 0.70 -0.32 o 691 0.74 Yes Yes
2021CB6 O C K 2021-02-12.29546 1.000E-05 09:42:58.110 1.500E-01 0.500 F 0.122 0.247 -17° 23' 35.00" 1.000E-01 0.500 F -0.014 0.022 21.2 R 0.70 -0.18 o 691 0.50 Yes Yes
2021CX5 O C K 2021-02-12.30418 1.000E-05 08:54:26.810 1.500E-01 0.500 F 0.143 -0.248 +04° 32' 02.60" 1.000E-01 0.500 F 0.144 0.230 21.1 R 0.70 0.18 o 691 0.68 Yes Yes
2021CW5 O C 2021-02-12.34679 1.000E-05 10:06:51.530 1.500E-01 0.612 F 0.098 -0.126 +15° 41' 04.10" 1.000E-01 0.612 F 0.287 0.184 20.6 V 0.70 -0.47 o 691 0.36 Yes Yes
2021CW5 O C K 2021-02-12.34679 1.000E-05 10:06:51.540 1.500E-01 0.612 F 0.098 0.019 +15° 41' 04.10" 1.000E-01 0.612 F 0.287 0.184 20.6 R 0.70 -0.07 o 691 0.30 Yes Yes
2021BK3 O C 2021-02-12.35057 1.000E-05 10:15:50.460 1.500E-01 0.500 F 0.107 0.108 +12° 01' 46.50" 1.000E-01 0.500 F 0.272 -0.105 20.3 V 0.70 0.04 o 691 0.31 Yes Yes
2021CW5 O C K 2021-02-12.35372 1.000E-05 10:06:51.140 1.500E-01 0.612 F 0.098 0.002 +15° 40' 58.10" 1.000E-01 0.612 F 0.287 0.178 20.5 R 0.70 -0.17 o 691 0.29 Yes Yes
2021CW5 O C 2021-02-12.35577 1.000E-05 10:06:51.010 1.500E-01 0.612 F 0.098 -0.172 +15° 40' 56.30" 1.000E-01 0.612 F 0.287 0.154 20.7 V 0.70 -0.37 o 691 0.38 Yes Yes
2021BK3 O C 2021-02-12.35891 1.000E-05 10:15:51.680 1.500E-01 0.500 F 0.107 -0.323 +12° 01' 32.30" 1.000E-01 0.500 F 0.272 0.330 20.6 V 0.70 0.34 o 691 0.94 Yes Yes
2021CW5 O C K 2021-02-12.36064 1.000E-05 10:06:50.740 1.500E-01 0.612 F 0.098 -0.025 +15° 40' 52.20" 1.000E-01 0.612 F 0.287 0.276 20.6 R 0.70 -0.07 o 691 0.45 Yes Yes
2021CW5 O C 2021-02-12.36269 1.000E-05 10:06:50.610 1.500E-01 0.612 F 0.098 -0.200 +15° 40' 50.00" 1.000E-01 0.612 F 0.287 -0.145 20.8 V 0.70 -0.27 o 691 0.41 Yes Yes
2021BK3 O C 2021-02-12.36583 1.000E-05 10:15:52.740 1.500E-01 0.500 F 0.107 0.021 +12° 01' 19.50" 1.000E-01 0.500 F 0.272 -0.305 20.5 V 0.70 0.24 o 691 0.62 Yes Yes
2014CS O C K 2021-02-12.36983 1.000E-05 10:11:33.250 1.500E-01 0.500 F 0.245 -0.028 +04° 52' 31.10" 1.000E-01 0.500 F 0.174 0.038 20.5 R 0.70 0.64 o 691 0.09 Yes Yes
2021CO1 O C K 2021-02-12.37262 1.000E-05 09:56:51.430 1.500E-01 0.500 F 0.075 0.049 -04° 43' 39.00" 1.000E-01 0.500 F 0.154 -0.082 18.1 R 0.70 -0.16 o 691 0.20 Yes Yes
2014CS O C K 2021-02-12.38030 1.000E-05 10:11:32.580 1.500E-01 0.500 F 0.245 0.026 +04° 52' 26.20" 1.000E-01 0.500 F 0.174 0.000 20.2 R 0.70 0.34 o 691 0.05 Yes Yes
2021CO1 O C K 2021-02-12.38309 1.000E-05 09:56:42.270 1.500E-01 0.500 F 0.075 -0.210 -04° 47' 51.60" 1.000E-01 0.500 F 0.154 -0.064 18.4 R 0.70 0.14 o 691 0.46 Yes Yes
2014CS O C K 2021-02-12.39077 1.000E-05 10:11:31.870 1.500E-01 0.500 F 0.245 -0.529 +04° 52' 21.50" 1.000E-01 0.500 F 0.174 0.165 20.3 R 0.70 0.44 o 691 1.11 Yes Yes
2021CO1 O C K 2021-02-12.39356 1.000E-05 09:56:33.130 1.500E-01 0.500 F 0.149 0.196 -04° 52' 05.50" 1.000E-01 0.500 F 0.023 0.073 18.3 R 0.70 0.05 o 691 0.43 Yes Yes
2003BL1 O C 2021-02-12.41817 1.000E-05 10:35:14.220 1.500E-01 0.500 F 0.072 -0.026 +02° 40' 25.20" 1.000E-01 0.500 F 0.052 -0.080 19.4 V 0.70 0.38 o 691 0.17 Yes Yes
2003BL1 O C 2021-02-12.41988 1.000E-05 10:35:13.910 1.500E-01 0.500 F 0.072 0.037 +02° 40' 22.10" 1.000E-01 0.500 F 0.052 -0.070 19.4 V 0.70 0.38 o 691 0.16 Yes Yes
2003BL1 O C 2021-02-12.42160 1.000E-05 10:35:13.560 1.500E-01 0.500 F 0.072 -0.473 +02° 40' 18.80" 1.000E-01 0.500 F 0.052 -0.243 19.7 V 0.70 0.68 o 691 1.07 Yes Yes
2020AD3 O C K 2021-02-13.22442 1.000E-05 07:54:39.110 1.500E-01 0.500 F -0.065 0.154 +14° 12' 07.20" 1.000E-01 0.500 F 0.281 -1.137 21.5 R 0.70 0.51 o 691 2.32 Yes Yes
2020AD3 O C K 2021-02-13.23321 1.000E-05 07:54:37.790 1.500E-01 0.500 F -0.065 0.403 +14° 12' 14.60" 1.000E-01 0.500 F 0.281 -0.006 21.9 R 0.70 0.90 o 691 0.81 Yes Yes
2021CP2 O C K 2021-02-13.33949 1.000E-05 11:05:22.890 1.500E-01 0.500 F 0.027 -0.519 +11° 59' 00.50" 1.000E-01 0.500 F 0.159 0.973 19.8 R 0.70 -1.20 o 691 2.22 Yes Yes
2021CP2 O C K 2021-02-13.35671 1.000E-05 11:05:19.020 1.500E-01 0.500 F 0.027 0.303 +11° 58' 58.10" 1.000E-01 0.500 F 0.159 -0.372 20.8 R 0.70 -0.20 o 691 0.97 Yes Yes
2021CB9 O C K 2021-02-13.46265 1.000E-05 09:54:20.580 1.500E-01 0.500 F 0.135 -0.199 +04° 28' 08.10" 1.000E-01 0.500 F 0.208 -0.483 21.4 R 0.70 -0.18 o 691 1.05 Yes Yes
2021CB9 O C K 2021-02-13.47845 1.000E-05 09:54:21.260 1.500E-01 0.500 F 0.135 -0.236 +04° 28' 14.00" 1.000E-01 0.500 F 0.208 0.284 21.1 R 0.70 -0.48 o 691 0.76 Yes Yes
2021CQ2 O C K 2021-02-16.28935 1.000E-05 10:01:37.110 1.500E-01 0.500 F 0.043 -0.092 +20° 51' 12.70" 1.000E-01 0.500 F 0.231 1.056 19.1 R 0.70 -0.22 o 691 2.16 Yes Yes
2021CQ2 O C K 2021-02-16.29266 1.000E-05 10:01:38.300 1.500E-01 0.500 F 0.043 0.901 +20° 50' 52.20" 1.000E-01 0.500 F 0.231 -1.239 18.8 R 0.70 -0.52 o 691 3.12 Yes Yes
2021CQ2 O C K 2021-02-16.29597 1.000E-05 10:01:39.400 1.500E-01 0.500 F 0.043 0.646 +20° 50' 34.80" 1.000E-01 0.500 F 0.231 -0.428 19.1 R 0.70 -0.22 o 691 1.58 Yes Yes
2021CP2 O C K 2021-02-16.32189 1.000E-05 10:54:03.120 1.500E-01 0.500 F -0.038 -0.211 +11° 54' 54.60" 1.000E-01 0.500 F 0.144 -0.149 20.4 R 0.70 -0.35 o 691 0.52 Yes Yes
2021CP2 O C K 2021-02-16.33184 1.000E-05 10:54:00.580 1.500E-01 0.500 F -0.038 -0.557 +11° 54' 53.40" 1.000E-01 0.500 F 0.144 -0.429 20.3 R 0.70 -0.44 o 691 1.42 Yes Yes
2021CP2 O C K 2021-02-16.34178 1.000E-05 10:53:58.090 1.500E-01 0.500 F -0.038 -0.175 +11° 54' 52.90" 1.000E-01 0.500 F 0.144 0.015 21.2 R 0.70 0.46 o 691 0.36 Yes Yes
2021CM9 O C K 2021-02-16.35745 1.000E-05 13:18:03.340 1.500E-01 0.500 F 0.226 -0.593 +14° 49' 18.40" 1.000E-01 0.500 F 0.191 -0.149 20.7 R 0.70 0.08 o 691 1.23 Yes Yes
2021CM9 O C K 2021-02-16.36795 1.000E-05 13:18:03.110 1.500E-01 0.500 F 0.226 -0.461 +14° 49' 30.70" 1.000E-01 0.500 F 0.191 0.166 21.2 R 0.70 0.58 o 691 0.99 Yes Yes
2021CM9 O C K 2021-02-16.37843 1.000E-05 13:18:02.920 1.500E-01 0.500 F 0.226 0.265 +14° 49' 42.60" 1.000E-01 0.500 F 0.191 0.110 21.1 R 0.70 0.48 o 691 0.58 Yes Yes
2020QZ3 O C K 2021-02-17.10219 1.000E-05 04:36:44.200 1.500E-01 0.500 F -0.224 -1.272 -08° 13' 09.30" 1.000E-01 0.500 F 0.089 0.141 20.8 R 0.70 0.52 o 691 2.60 Yes Yes
2020QZ3 O C K 2021-02-17.11047 1.000E-05 04:36:48.600 1.500E-01 0.500 F -0.224 0.446 -08° 12' 49.60" 1.000E-01 0.500 F 0.089 -0.470 21.3 R 0.70 1.02 o 691 1.31 Yes Yes
2020QZ3 O C K 2021-02-17.11876 1.000E-05 04:36:52.900 1.500E-01 0.500 F -0.224 0.598 -08° 12' 28.60" 1.000E-01 0.500 F 0.089 0.180 21.0 R 0.70 0.72 o 691 1.27 Yes Yes
Apophis O C H 2021-02-17.30397 1.000E-05 10:41:54.010 1.500E-01 0.500 F 0.090 -0.042 -17° 33' 12.30" 1.000E-01 0.500 F -0.016 0.024 15.5 R 0.70 0.00 o 691 0.10 Yes Yes
Apophis O C H 2021-02-17.30522 1.000E-05 10:41:53.670 1.500E-01 0.500 F 0.090 -0.147 -17° 33' 10.80" 1.000E-01 0.500 F -0.016 0.034 15.4 R 0.70 -0.10 o 691 0.30 Yes Yes
Apophis O C H 2021-02-17.30645 1.000E-05 10:41:53.340 1.500E-01 0.500 F 0.090 -0.185 -17° 33' 09.30" 1.000E-01 0.500 F -0.016 0.066 15.4 R 0.70 -0.10 o 691 0.39 Yes Yes
2021DE O C K 2021-02-17.48949 1.000E-05 11:30:58.260 1.500E-01 0.500 F 0.265 -1.348 +06° 42' 01.40" 1.000E-01 0.500 F 0.318 -0.209 21.1 R 0.70 -0.13 o 691 2.75 Yes Yes
2021DE O C K 2021-02-17.50127 1.000E-05 11:30:57.230 1.500E-01 0.500 F 0.265 -0.553 +06° 42' 03.90" 1.000E-01 0.500 F 0.318 -0.262 20.6 R 0.70 -0.63 o 691 1.23 Yes Yes
2021DE O C K 2021-02-17.51306 1.000E-05 11:30:56.140 1.500E-01 0.500 F 0.265 -0.773 +06° 42' 06.50" 1.000E-01 0.500 F 0.318 -0.202 21.5 R 0.70 0.27 o 691 1.61 Yes Yes
2015FT118 O C K 2021-02-18.11577 1.000E-05 04:55:43.540 1.500E-01 0.500 F -0.177 0.484 -17° 28' 56.70" 1.000E-01 0.500 F 0.147 -0.287 22.6 R 0.70 0.69 o 691 1.14 Yes Yes
2015FT118 O C K 2021-02-18.14749 1.000E-05 04:55:47.440 1.500E-01 0.500 F -0.177 -1.301 -17° 27' 59.70" 1.000E-01 0.500 F 0.147 -0.715 21.6 R 0.70 -0.31 o 691 2.99 Yes Yes
Apophis O C H 2021-02-18.29754 1.000E-05 10:37:51.160 1.500E-01 0.500 F 0.073 -0.072 -17° 12' 00.80" 1.000E-01 0.500 F -0.026 -0.027 15.3 R 0.70 -0.15 o 691 0.15 Yes Yes
Apophis O C H 2021-02-18.29909 1.000E-05 10:37:50.740 1.500E-01 0.500 F 0.073 -0.026 -17° 11' 58.70" 1.000E-01 0.500 F -0.026 0.045 15.4 R 0.70 -0.05 o 691 0.11 Yes Yes
Apophis O C H 2021-02-18.30064 1.000E-05 10:37:50.310 1.500E-01 0.500 F 0.073 -0.123 -17° 11' 56.80" 1.000E-01 0.500 F -0.026 -0.084 15.4 R 0.70 -0.05 o 691 0.30 Yes Yes
2011DP O C K 2021-02-18.47446 1.000E-05 11:36:38.510 1.500E-01 0.500 F 0.157 -0.034 +04° 48' 34.30" 1.000E-01 0.500 F 0.331 0.370 20.5 R 0.70 0.07 o 691 0.77 Yes Yes
2011DP O C K 2021-02-18.48402 1.000E-05 11:36:34.970 1.500E-01 0.500 F 0.157 -0.405 +04° 49' 36.10" 1.000E-01 0.500 F 0.331 -0.537 20.5 R 0.70 0.07 o 691 1.39 Yes Yes
2011DP O C K 2021-02-18.49358 1.000E-05 11:36:31.500 1.500E-01 0.500 F 0.157 0.204 +04° 50' 38.50" 1.000E-01 0.500 F 0.331 -0.837 20.8 R 0.70 0.37 o 691 1.78 Yes Yes
2005FV2 O C K 2021-02-18.53487 1.000E-05 17:34:41.600 1.500E-01 0.500 F 0.083 -0.024 +29° 02' 28.00" 1.000E-01 0.500 F 0.140 -0.004 18.1 R 0.70 -0.60 o 691 0.05 Yes Yes
2005FV2 O C K 2021-02-18.53898 1.000E-05 17:34:39.720 1.500E-01 0.500 F 0.083 -0.213 +29° 02' 31.40" 1.000E-01 0.500 F 0.140 0.299 18.4 R 0.70 -0.30 o 691 0.75 Yes Yes
2019FJ O C K 2021-02-19.12901 1.000E-05 05:54:57.820 1.500E-01 0.500 F -0.013 -0.327 -28° 23' 31.00" 1.000E-01 0.500 F -0.045 0.046 19.7 R 0.70 0.16 o 691 0.67 Yes Yes
2019FJ O C K 2021-02-19.13402 1.000E-05 05:54:57.390 1.500E-01 0.500 F -0.013 0.068 -28° 23' 04.90" 1.000E-01 0.500 F -0.045 0.644 19.7 R 0.70 0.16 o 691 1.31 Yes Yes
2019FJ O C K 2021-02-19.13904 1.000E-05 05:54:56.930 1.500E-01 0.500 F -0.013 0.077 -28° 22' 39.90" 1.000E-01 0.500 F -0.045 0.085 19.6 R 0.70 0.06 o 691 0.23 Yes Yes
2020TG4 O C K 2021-02-19.14977 1.000E-05 07:33:13.300 1.500E-01 0.500 F -0.065 0.315 +07° 49' 19.40" 1.000E-01 0.500 F 0.093 0.032 20.2 R 0.70 0.21 o 691 0.65 Yes Yes
2020TG4 O C K 2021-02-19.15793 1.000E-05 07:33:14.010 1.500E-01 0.500 F -0.065 -0.055 +07° 49' 20.40" 1.000E-01 0.500 F 0.093 -0.024 20.5 R 0.70 0.51 o 691 0.12 Yes Yes
2020TG4 O C K 2021-02-19.16610 1.000E-05 07:33:14.750 1.500E-01 0.500 F -0.065 0.019 +07° 49' 21.40" 1.000E-01 0.500 F 0.093 -0.077 20.3 R 0.70 0.31 o 691 0.16 Yes Yes
2021AD6 O C K 2021-02-19.18023 1.000E-05 09:11:50.140 1.500E-01 0.500 F 0.249 -0.087 -04° 47' 59.50" 1.000E-01 0.500 F 0.032 0.035 21.0 R 0.70 0.24 o 691 0.19 Yes Yes
2021CX5 O C K 2021-02-19.18802 1.000E-05 08:51:06.050 1.500E-01 0.500 F 0.100 -0.078 +02° 51' 11.60" 1.000E-01 0.500 F 0.151 -0.045 20.9 R 0.70 0.28 o 691 0.18 Yes Yes
2021AD6 O C K 2021-02-19.19274 1.000E-05 09:11:48.540 1.500E-01 0.500 F 0.249 0.503 -04° 47' 54.60" 1.000E-01 0.500 F 0.032 0.177 o 691 1.09 Yes No
2021CX5 O C K 2021-02-19.20053 1.000E-05 08:51:05.450 1.500E-01 0.500 F 0.100 -0.094 +02° 50' 59.50" 1.000E-01 0.500 F 0.151 0.212 20.4 R 0.70 -0.22 o 691 0.47 Yes Yes

[1-200] [201-400] [401-600] [601-800] [801-1000] [1001-1200] [1201-1400] [1401-1600] [1601-1800] [1801-2000] [2001-2200] [2201-2400] [2401-2600] [2601-2800] [2801-3000] [3001-3200] [3201-3400] [3401-3600] [3601-3800] [3801-4000] [4001-4200] [4201-4400] [4401-4600] [4601-4800] [4801-5000] [5001-5200] [5201-5400] [5401-5600] [5601-5800] [5801-6000] [6001-6200] [6201-6400] [6401-6600] [6601-6800] [6801-7000] [7001-7200] [7201-7400] [7401-7600] [7601-7800] [7801-8000] [8001-8200] [8201-8400] [8401-8600] [8601-8800] [8801-9000] [9001-9200] [9201-9400] [9401-9600] [9601-9800] [9801-10000] [10001-10200] [10201-10400] [10401-10600] [10601-10800] [10801-11000] [11001-11200] [11201-11400] [11401-11600] [11601-11800] [11801-12000] [12001-12200] [12201-12400] [12401-12600] [12601-12800] [12801-13000] [13001-13200] [13201-13400] [13401-13600] [13601-13800] [13801-14000] [14001-14200] [14201-14400] [14401-14600] [14601-14800] [14801-15000] [15001-15200] [15201-15400] [15401-15600] [15601-15800] [15801-16000] [16001-16200] [16201-16400] [16401-16600] [16601-16800] [16801-17000] [17001-17200] [17201-17400] [17401-17600] [17601-17800] [17801-18000] [18001-18200] [18201-18400] [18401-18600] [18601-18800] [18801-19000] [19001-19200] [19201-19400] [19401-19600] [19601-19800] [19801-20000] [20001-20200] [20201-20400] [20401-20600] [20601-20800] [20801-21000] [21001-21200] [21201-21400] [21401-21600] [21601-21800] [21801-22000] [22001-22200] [22201-22400] [22401-22600] [22601-22800] [22801-23000] [23001-23200] [23201-23400] [23401-23600] [23601-23800] [23801-24000] [24001-24200] [24201-24400] [24401-24600] [24601-24800] [24801-25000] [25001-25200] [25201-25400] [25401-25600] [25601-25800] [25801-26000] [26001-26200] [26201-26400] [26401-26600] [26601-26800] [26801-27000] [27001-27200] [27201-27400] [27401-27600] [27601-27800] [27801-28000] [28001-28200] [28201-28400] [28401-28600] [28601-28800] [28801-29000] [29001-29200] [29201-29400] [29401-29600] [29601-29800] [29801-30000] [30001-30200] [30201-30400] [30401-30600] [30601-30800] [30801-31000] [31001-31200] [31201-31400] [31401-31600] [31601-31800] [31801-32000] [32001-32200] [32201-32400] [32401-32600] [32601-32800] [32801-33000] [33001-33200] [33201-33400] [33401-33600] [33601-33800] [33801-34000] [34001-34200] [34201-34400] [34401-34600] [34601-34800] [34801-35000] [35001-35200] [35201-35400] [35401-35600] [35601-35800] [35801-36000] [36001-36200] [36201-36400] [36401-36600] [36601-36800] [36801-37000] [37001-37200] [37201-37400] [37401-37600] [37601-37800] [37801-38000] [38001-38200] [38201-38400] [38401-38600] [38601-38800] [38801-39000] [39001-39200] [39201-39400] [39401-39600] [39601-39800] [39801-40000] [40001-40200] [40201-40400] [40401-40600] [40601-40800] [40801-41000] [41001-41200] [41201-41400] [41401-41600] [41601-41800] [41801-42000] [42001-42200] [42201-42400] [42401-42600] [42601-42800] [42801-43000] [43001-43200] [43201-43400] [43401-43600] [43601-43800] [43801-44000] [44001-44200] [44201-44400] [44401-44600] [44601-44800] [44801-45000] [45001-45200] [45201-45400] [45401-45600] [45601-45800] [45801-46000] [46001-46200] [46201-46400] [46401-46600] [46601-46800] [46801-47000] [47001-47200] [47201-47400] [47401-47600] [47601-47800] [47801-48000] [48001-48200] [48201-48400] [48401-48600] [48601-48800] [48801-49000] [49001-49200] [49201-49400] [49401-49600] [49601-49800] [49801-50000] [50001-50200] [50201-50388]